Time;durP1;ratioP1;P1;durP2;ratioP2;P2;SDS_P1;SDS_P2;PMS_P1;PMS_P2;Temp;Humidity;BMP_temperature;BMP_pressure;BME280_temperature;BME280_humidity;BME280_pressure;Samples;Min_cycle;Max_cycle;Signal;HPM_P1;HPM_P2
2022/01/11 00:01:22;;;;;;;23.00;11.77;;;3.60;99.90;;;;;;4988868;28;20259;-79
2022/01/11 00:03:48;;;;;;;25.63;11.50;;;3.50;99.90;;;;;;4986224;28;20629;-78
2022/01/11 00:09:00;;;;;;;21.00;10.40;;;3.50;99.90;;;;;;4986873;28;20181;-80
2022/01/11 00:11:26;;;;;;;22.73;10.80;;;3.50;99.90;;;;;;4987247;28;20196;-79
2022/01/11 00:13:52;;;;;;;25.30;10.57;;;3.50;99.90;;;;;;4989348;28;20267;-78
2022/01/11 00:16:18;;;;;;;22.13;10.43;;;3.50;99.90;;;;;;4986780;28;20205;-79
2022/01/11 00:18:44;;;;;;;22.90;11.47;;;3.60;99.90;;;;;;4988897;28;20184;-79
2022/01/11 00:21:11;;;;;;;22.50;10.63;;;3.60;99.90;;;;;;4987385;28;20799;-79
2022/01/11 00:26:02;;;;;;;23.43;10.70;;;3.60;99.90;;;;;;4988662;28;20201;-79
2022/01/11 00:28:29;;;;;;;20.73;9.70;;;3.60;99.90;;;;;;4986660;28;20192;-79
2022/01/11 00:30:55;;;;;;;22.30;11.27;;;3.50;99.90;;;;;;5001747;28;20216;-79
2022/01/11 00:33:35;;;;;;;24.90;11.17;;;3.60;99.90;;;;;;4987272;28;20267;-79
2022/01/11 00:36:02;;;;;;;24.27;10.57;;;3.60;99.90;;;;;;4988089;28;20187;-79
2022/01/11 00:38:34;;;;;;;22.33;10.97;;;3.50;99.90;;;;;;4989018;28;20188;-79
2022/01/11 00:41:05;;;;;;;22.43;10.73;;;3.60;99.90;;;;;;4986898;28;20296;-79
2022/01/11 00:43:33;;;;;;;24.87;11.00;;;3.60;99.90;;;;;;4987190;28;20204;-79
2022/01/11 00:45:59;;;;;;;24.43;10.67;;;3.60;99.90;;;;;;4986844;28;20662;-79
2022/01/11 00:48:26;;;;;;;27.20;11.50;;;3.50;99.90;;;;;;4986735;28;20743;-79
2022/01/11 00:50:52;;;;;;;25.80;10.97;;;3.60;99.90;;;;;;4985763;28;20204;-79
2022/01/11 00:53:18;;;;;;;26.73;11.33;;;3.60;99.90;;;;;;4993822;28;20239;-79
2022/01/11 00:55:47;;;;;;;27.10;11.47;;;3.50;99.90;;;;;;4985129;28;20265;-79
2022/01/11 00:58:14;;;;;;;24.07;10.20;;;3.50;99.90;;;;;;4987683;28;20211;-80
2022/01/11 01:00:39;;;;;;;26.90;11.37;;;3.50;99.90;;;;;;4986636;28;20631;-79
2022/01/11 01:03:06;;;;;;;31.43;11.00;;;3.40;99.90;;;;;;4985072;28;20203;-79
2022/01/11 01:05:32;;;;;;;30.10;11.47;;;3.40;99.90;;;;;;4987427;28;20176;-79
2022/01/11 01:07:57;;;;;;;28.63;10.80;;;3.40;99.90;;;;;;4994350;28;20172;-79
2022/01/11 01:10:29;;;;;;;37.30;12.50;;;3.40;99.90;;;;;;4984503;28;20203;-78
2022/01/11 01:12:56;;;;;;;35.63;13.03;;;3.40;99.90;;;;;;4984332;28;20268;-79
2022/01/11 01:15:24;;;;;;;39.13;13.80;;;3.30;99.90;;;;;;4987196;28;20196;-79
2022/01/11 01:17:50;;;;;;;34.77;12.43;;;3.40;99.90;;;;;;4985208;28;20238;-79
2022/01/11 01:20:16;;;;;;;34.50;13.37;;;3.40;99.90;;;;;;4984516;28;20184;-79
2022/01/11 01:22:42;;;;;;;35.23;13.73;;;3.40;99.90;;;;;;4986679;28;20219;-78
2022/01/11 01:25:08;;;;;;;43.13;14.90;;;3.40;99.90;;;;;;4983290;28;20255;-79
2022/01/11 01:27:34;;;;;;;40.07;15.27;;;3.30;99.90;;;;;;4983638;28;20222;-78
2022/01/11 01:30:00;;;;;;;35.87;13.90;;;3.30;99.90;;;;;;4982325;28;20185;-79
2022/01/11 01:32:26;;;;;;;34.40;13.00;;;3.30;99.90;;;;;;4984846;28;20291;-78
2022/01/11 01:34:52;;;;;;;37.70;13.73;;;3.40;99.90;;;;;;4981885;28;20204;-78
2022/01/11 01:37:19;;;;;;;34.67;13.33;;;3.30;99.90;;;;;;4979690;28;20308;-79
2022/01/11 01:39:45;;;;;;;32.53;13.13;;;3.30;99.90;;;;;;4975879;28;20272;-78
2022/01/11 01:42:12;;;;;;;31.70;12.70;;;3.30;99.90;;;;;;4977580;28;20208;-78
2022/01/11 01:44:40;;;;;;;32.43;13.20;;;3.40;99.90;;;;;;4981983;28;20208;-79
2022/01/11 01:47:07;;;;;;;32.83;12.77;;;3.30;99.90;;;;;;4985300;28;20196;-79
2022/01/11 01:49:34;;;;;;;33.47;12.73;;;3.30;99.90;;;;;;4984302;28;20288;-79
2022/01/11 01:52:00;;;;;;;28.20;12.43;;;3.30;99.90;;;;;;4985530;28;20223;-78
2022/01/11 01:54:26;;;;;;;29.97;11.90;;;3.20;99.90;;;;;;4986565;28;20820;-79
2022/01/11 01:56:52;;;;;;;25.37;11.47;;;3.30;99.90;;;;;;4986505;28;20215;-79
2022/01/11 01:59:18;;;;;;;26.37;11.43;;;3.30;99.90;;;;;;4986346;28;20188;-79
2022/01/11 02:01:46;;;;;;;27.07;11.87;;;3.30;99.90;;;;;;4984928;28;20206;-79
2022/01/11 02:04:15;;;;;;;23.23;11.23;;;3.20;99.90;;;;;;4985361;28;20706;-79
2022/01/11 02:06:40;;;;;;;25.17;11.43;;;3.20;99.90;;;;;;4986085;28;20180;-79
2022/01/11 02:09:06;;;;;;;24.03;11.63;;;3.30;99.90;;;;;;4986380;28;20187;-79
2022/01/11 02:11:32;;;;;;;28.10;11.90;;;3.20;99.90;;;;;;4986105;28;20678;-79
2022/01/11 02:13:58;;;;;;;25.93;11.00;;;3.20;99.90;;;;;;4983922;28;20217;-79
2022/01/11 02:16:25;;;;;;;24.30;11.03;;;3.30;99.90;;;;;;4984628;28;20995;-79
2022/01/11 02:18:51;;;;;;;23.27;10.77;;;3.20;99.90;;;;;;4985107;28;20187;-79
2022/01/11 02:21:17;;;;;;;21.83;10.17;;;3.30;99.90;;;;;;4985282;28;20205;-79
2022/01/11 02:23:43;;;;;;;23.33;10.47;;;3.30;99.90;;;;;;4985224;28;20224;-79
2022/01/11 02:26:09;;;;;;;23.10;11.60;;;3.30;99.90;;;;;;4989194;28;20208;-79
2022/01/11 02:28:35;;;;;;;22.83;11.23;;;3.30;99.90;;;;;;4988907;28;20187;-78
2022/01/11 02:31:04;;;;;;;29.23;11.80;;;3.30;99.90;;;;;;4988396;28;20208;-78
2022/01/11 02:33:32;;;;;;;23.77;10.77;;;3.30;99.90;;;;;;4988893;28;20556;-79
2022/01/11 02:36:00;;;;;;;27.57;11.30;;;3.30;99.90;;;;;;4995005;28;20189;-79
2022/01/11 02:38:25;;;;;;;21.90;10.70;;;3.30;99.90;;;;;;4984956;28;20181;-79
2022/01/11 02:40:51;;;;;;;20.63;10.47;;;3.30;99.90;;;;;;4989427;28;20211;-79
2022/01/11 02:43:16;;;;;;;26.50;11.87;;;3.20;99.90;;;;;;4987897;28;20239;-79
2022/01/11 02:45:42;;;;;;;23.57;10.43;;;3.20;99.90;;;;;;4987078;28;20654;-79
2022/01/11 02:48:08;;;;;;;23.53;10.77;;;3.20;99.90;;;;;;4991569;28;20192;-79
2022/01/11 02:50:34;;;;;;;23.77;10.93;;;3.20;99.90;;;;;;4986065;28;20444;-79
2022/01/11 02:52:59;;;;;;;25.17;11.60;;;3.20;99.90;;;;;;4989473;28;20181;-79
2022/01/11 02:55:25;;;;;;;22.73;10.57;;;3.20;99.90;;;;;;4988180;28;20184;-79
2022/01/11 02:57:50;;;;;;;20.27;11.00;;;3.20;99.90;;;;;;4988710;28;20181;-79
2022/01/11 03:00:19;;;;;;;23.90;11.17;;;3.20;99.90;;;;;;4987206;28;20624;-79
2022/01/11 03:02:45;;;;;;;24.63;11.23;;;3.20;99.90;;;;;;4989040;28;20227;-78
2022/01/11 03:05:12;;;;;;;25.50;10.83;;;3.20;99.90;;;;;;4989937;28;20219;-79
2022/01/11 03:07:43;;;;;;;19.60;9.73;;;3.20;99.90;;;;;;4988314;28;20242;-78
2022/01/11 03:10:32;;;;;;;20.80;10.20;;;3.10;99.90;;;;;;4988319;28;20216;-80
2022/01/11 03:13:05;;;;;;;25.83;9.37;;;3.10;99.90;;;;;;5004387;28;20172;-79
2022/01/11 03:15:32;;;;;;;24.17;10.60;;;3.10;99.90;;;;;;4990177;28;20180;-79
2022/01/11 03:17:57;;;;;;;23.30;10.77;;;3.20;99.90;;;;;;4989494;28;20212;-78
2022/01/11 03:20:23;;;;;;;21.07;9.73;;;3.20;99.90;;;;;;4986745;28;20200;-79
2022/01/11 03:22:49;;;;;;;19.53;9.67;;;3.20;99.90;;;;;;4987243;28;20275;-79
2022/01/11 03:25:17;;;;;;;22.57;9.53;;;3.10;99.90;;;;;;4987852;28;20227;-80
2022/01/11 03:27:43;;;;;;;20.67;9.37;;;3.20;99.90;;;;;;5004192;28;20677;-79
2022/01/11 03:30:10;;;;;;;21.77;9.83;;;3.10;99.90;;;;;;4987324;28;20188;-79
2022/01/11 03:32:36;;;;;;;22.07;9.70;;;3.10;99.90;;;;;;4986588;28;20498;-79
2022/01/11 03:35:07;;;;;;;20.07;8.97;;;3.10;99.90;;;;;;4986288;28;20200;-79
2022/01/11 03:37:32;;;;;;;20.30;9.70;;;3.10;99.90;;;;;;4986938;28;20180;-79
2022/01/11 03:39:58;;;;;;;20.20;9.00;;;3.10;99.90;;;;;;4987870;28;20518;-79
2022/01/11 03:42:23;;;;;;;25.93;10.17;;;3.10;99.90;;;;;;5003264;28;20208;-79
2022/01/11 03:44:50;;;;;;;20.63;9.50;;;3.10;99.90;;;;;;4987816;28;20200;-79
2022/01/11 03:47:16;;;;;;;19.07;9.23;;;3.10;99.90;;;;;;4987235;28;20180;-79
2022/01/11 03:49:42;;;;;;;21.03;10.20;;;3.10;99.90;;;;;;5002956;28;20276;-79
2022/01/11 03:52:08;;;;;;;21.53;9.47;;;3.10;99.90;;;;;;4988204;28;20200;-78
2022/01/11 03:54:50;;;;;;;21.93;9.50;;;3.10;99.90;;;;;;4986781;28;20200;-79
2022/01/11 03:57:16;;;;;;;20.33;9.30;;;3.10;99.90;;;;;;4985392;28;20758;-79
2022/01/11 03:59:42;;;;;;;20.73;9.80;;;3.10;99.90;;;;;;4987029;28;20208;-79
2022/01/11 04:02:08;;;;;;;18.07;9.03;;;3.10;99.90;;;;;;5001951;28;20494;-79
2022/01/11 04:04:34;;;;;;;22.63;9.70;;;3.10;99.90;;;;;;4986509;28;20691;-78
2022/01/11 04:07:00;;;;;;;21.60;10.17;;;3.10;99.90;;;;;;4986131;28;20188;-78
2022/01/11 04:09:26;;;;;;;19.77;9.23;;;3.10;99.90;;;;;;4985021;28;20267;-79
2022/01/11 04:11:52;;;;;;;20.97;10.33;;;3.10;99.90;;;;;;4988697;28;20220;-79
2022/01/11 04:14:18;;;;;;;16.40;9.20;;;3.10;99.90;;;;;;4987551;28;20208;-79
2022/01/11 04:16:43;;;;;;;18.00;8.63;;;3.10;99.90;;;;;;4988159;28;20184;-79
2022/01/11 04:19:09;;;;;;;16.17;8.70;;;3.20;99.90;;;;;;4985868;28;20200;-79
2022/01/11 04:21:35;;;;;;;17.67;9.27;;;3.20;99.90;;;;;;4986872;28;20686;-79
2022/01/11 04:24:02;;;;;;;17.00;8.53;;;3.20;99.90;;;;;;4986204;28;20244;-79
2022/01/11 04:26:28;;;;;;;21.00;8.90;;;3.10;99.90;;;;;;5002023;28;20188;-79
2022/01/11 04:28:54;;;;;;;20.03;8.97;;;3.10;99.90;;;;;;4984271;28;20188;-79
2022/01/11 04:31:19;;;;;;;18.27;9.93;;;3.10;99.90;;;;;;4986303;28;20224;-78
2022/01/11 04:33:45;;;;;;;17.33;8.43;;;3.00;99.90;;;;;;4986337;28;20259;-78
2022/01/11 04:36:11;;;;;;;18.77;9.37;;;3.00;99.90;;;;;;5002719;28;20261;-78
2022/01/11 04:38:37;;;;;;;17.77;8.83;;;3.00;99.90;;;;;;5000310;28;20214;-79
2022/01/11 04:41:03;;;;;;;17.87;8.97;;;3.00;99.90;;;;;;4983498;28;20665;-78
2022/01/11 04:43:30;;;;;;;17.03;8.70;;;3.00;99.90;;;;;;4987068;28;20267;-79
2022/01/11 04:45:56;;;;;;;15.57;7.77;;;3.00;99.90;;;;;;4992651;28;20185;-79
2022/01/11 04:48:22;;;;;;;19.50;8.93;;;3.00;99.90;;;;;;4985610;28;20199;-79
2022/01/11 04:50:48;;;;;;;15.77;8.33;;;3.00;99.90;;;;;;4987681;28;20214;-78
2022/01/11 04:53:14;;;;;;;17.03;8.93;;;3.00;99.90;;;;;;4985835;28;20240;-79
2022/01/11 04:55:40;;;;;;;15.60;8.40;;;3.00;99.90;;;;;;5001040;28;20181;-78
2022/01/11 04:58:05;;;;;;;16.03;8.40;;;3.00;99.90;;;;;;4981727;28;20246;-79
2022/01/11 05:00:32;;;;;;;16.17;8.77;;;3.00;99.90;;;;;;4982918;28;20276;-78
2022/01/11 05:02:59;;;;;;;17.17;8.43;;;3.00;99.90;;;;;;4977241;28;20189;-78
2022/01/11 05:05:27;;;;;;;16.40;8.27;;;3.00;99.90;;;;;;4983290;28;20192;-79
2022/01/11 05:07:53;;;;;;;16.47;8.20;;;2.90;99.90;;;;;;4984334;28;20275;-78
2022/01/11 05:10:18;;;;;;;15.23;8.17;;;3.00;99.90;;;;;;4983932;28;20697;-78
2022/01/11 05:12:44;;;;;;;14.13;8.60;;;2.90;99.90;;;;;;4985438;28;20240;-79
2022/01/11 05:15:11;;;;;;;15.57;8.03;;;2.90;99.90;;;;;;4984972;28;20188;-79
2022/01/11 05:17:37;;;;;;;16.90;8.60;;;3.00;99.90;;;;;;4985703;28;20223;-79
2022/01/11 05:20:05;;;;;;;15.97;9.00;;;3.00;99.90;;;;;;4990650;28;20180;-79
2022/01/11 05:22:31;;;;;;;17.57;8.60;;;2.90;99.90;;;;;;4989257;28;20212;-78
2022/01/11 05:24:56;;;;;;;16.20;8.73;;;2.90;99.90;;;;;;4982163;28;20205;-79
2022/01/11 05:27:22;;;;;;;16.07;8.67;;;2.90;99.90;;;;;;4981859;28;20185;-78
2022/01/11 05:29:47;;;;;;;17.87;8.77;;;3.00;99.90;;;;;;4999389;28;20192;-78
2022/01/11 05:32:13;;;;;;;17.47;9.50;;;2.90;99.90;;;;;;4981187;28;20225;-78
2022/01/11 05:34:38;;;;;;;18.70;10.33;;;2.90;99.90;;;;;;4983589;28;20204;-79
2022/01/11 05:37:04;;;;;;;16.87;8.70;;;2.90;99.90;;;;;;4983974;28;20188;-79
2022/01/11 05:39:30;;;;;;;17.27;8.77;;;2.90;99.90;;;;;;4980476;28;20196;-78
2022/01/11 05:41:55;;;;;;;16.23;9.37;;;2.90;99.90;;;;;;4980703;28;20232;-78
2022/01/11 05:44:22;;;;;;;17.00;9.27;;;2.90;99.90;;;;;;4980566;28;20239;-78
2022/01/11 05:46:48;;;;;;;16.30;8.07;;;2.90;99.90;;;;;;4986080;28;20215;-79
2022/01/11 05:49:14;;;;;;;20.47;9.60;;;2.90;99.90;;;;;;4980696;28;20659;-78
2022/01/11 05:51:40;;;;;;;16.73;9.03;;;2.90;99.90;;;;;;4994635;28;20311;-78
2022/01/11 05:54:05;;;;;;;18.33;8.80;;;2.90;99.90;;;;;;4977347;28;20189;-78
2022/01/11 05:56:31;;;;;;;19.57;9.30;;;2.90;99.90;;;;;;4976093;28;20999;-77
2022/01/11 05:58:57;;;;;;;19.90;9.77;;;2.90;99.90;;;;;;4994942;28;20264;-79
2022/01/11 06:01:25;;;;;;;19.07;9.67;;;2.90;99.90;;;;;;4985877;28;20641;-79
2022/01/11 06:03:51;;;;;;;20.03;10.07;;;2.80;99.90;;;;;;4988397;28;20209;-79
2022/01/11 06:06:16;;;;;;;21.37;10.30;;;2.90;99.90;;;;;;4986783;28;20191;-79
2022/01/11 06:08:42;;;;;;;17.87;9.83;;;2.90;99.90;;;;;;4980395;28;21099;-79
2022/01/11 06:11:09;;;;;;;18.67;9.10;;;2.80;99.90;;;;;;4987536;28;20670;-79
2022/01/11 06:13:34;;;;;;;16.13;9.23;;;2.80;99.90;;;;;;5002059;28;20688;-79
2022/01/11 06:16:00;;;;;;;17.83;8.40;;;2.80;99.90;;;;;;4987237;28;20247;-78
2022/01/11 06:18:25;;;;;;;16.93;9.10;;;2.80;99.90;;;;;;4986824;28;20192;-79
2022/01/11 06:20:51;;;;;;;13.80;7.83;;;2.80;99.90;;;;;;4988899;28;20215;-79
2022/01/11 06:23:16;;;;;;;15.87;8.40;;;2.80;99.90;;;;;;4986470;28;20256;-79
2022/01/11 06:25:42;;;;;;;17.17;8.90;;;2.80;99.90;;;;;;4987411;28;20185;-79
2022/01/11 06:28:07;;;;;;;17.40;9.13;;;2.80;99.90;;;;;;4986068;28;20185;-79
2022/01/11 06:30:33;;;;;;;16.37;9.43;;;2.80;99.90;;;;;;4985680;28;21357;-79
2022/01/11 06:32:59;;;;;;;18.63;10.03;;;2.80;99.90;;;;;;4986617;28;20217;-79
2022/01/11 06:35:25;;;;;;;17.33;8.47;;;2.80;99.90;;;;;;4986901;28;20193;-79
2022/01/11 06:37:51;;;;;;;18.77;9.07;;;2.80;99.90;;;;;;4987451;28;20192;-79
2022/01/11 06:40:19;;;;;;;15.07;8.80;;;2.80;99.90;;;;;;4985303;28;20218;-79
2022/01/11 06:42:46;;;;;;;19.97;9.70;;;2.90;99.90;;;;;;4985640;28;20208;-79
2022/01/11 06:45:12;;;;;;;15.80;8.37;;;2.90;99.90;;;;;;4987643;28;20208;-79
2022/01/11 06:47:39;;;;;;;17.80;9.37;;;2.80;99.90;;;;;;5002352;28;20261;-78
2022/01/11 06:50:05;;;;;;;16.57;9.30;;;2.80;99.90;;;;;;4985530;28;20190;-79
2022/01/11 06:52:31;;;;;;;16.47;9.20;;;2.80;99.90;;;;;;4988001;28;20257;-79
2022/01/11 06:54:56;;;;;;;16.30;8.20;;;2.80;99.90;;;;;;5001915;28;20215;-79
2022/01/11 06:57:24;;;;;;;18.77;9.30;;;2.80;99.90;;;;;;4985706;28;20231;-79
2022/01/11 06:59:49;;;;;;;16.13;8.70;;;2.80;99.90;;;;;;4986699;28;20252;-78
2022/01/11 07:02:15;;;;;;;17.53;8.53;;;2.80;99.90;;;;;;4986427;28;20301;-78
2022/01/11 07:04:41;;;;;;;16.67;9.03;;;2.80;99.90;;;;;;4981065;28;20228;-79
2022/01/11 07:07:07;;;;;;;15.97;8.87;;;2.80;99.90;;;;;;5001136;28;20181;-78
2022/01/11 07:09:33;;;;;;;14.57;8.63;;;2.80;99.90;;;;;;4986780;28;20181;-80
2022/01/11 07:11:59;;;;;;;17.73;9.30;;;2.70;99.90;;;;;;5000918;28;20212;-79
2022/01/11 07:14:25;;;;;;;17.20;8.90;;;2.80;99.90;;;;;;4985901;28;20218;-79
2022/01/11 07:16:51;;;;;;;15.03;8.60;;;2.70;99.90;;;;;;4984238;28;20259;-79
2022/01/11 07:19:17;;;;;;;19.03;9.30;;;2.80;99.90;;;;;;4984285;28;21296;-79
2022/01/11 07:21:44;;;;;;;18.00;9.17;;;2.70;99.90;;;;;;4985359;28;20220;-79
2022/01/11 07:24:11;;;;;;;19.17;9.43;;;2.70;99.90;;;;;;4984614;28;20224;-79
2022/01/11 07:26:36;;;;;;;18.50;9.67;;;2.70;99.90;;;;;;4987243;28;20188;-80
2022/01/11 07:29:03;;;;;;;18.83;9.37;;;2.70;99.90;;;;;;4985949;28;20180;-79
2022/01/11 07:31:29;;;;;;;16.17;8.43;;;2.70;99.90;;;;;;4992669;28;20219;-79
2022/01/11 07:33:55;;;;;;;16.53;8.80;;;2.60;99.90;;;;;;4985579;28;21189;-79
2022/01/11 07:36:20;;;;;;;18.23;9.20;;;2.50;99.90;;;;;;4985798;28;20185;-78
2022/01/11 07:38:46;;;;;;;19.30;9.53;;;2.50;99.90;;;;;;5001377;28;20256;-79
2022/01/11 07:41:12;;;;;;;16.07;9.43;;;2.50;99.90;;;;;;4985410;28;20738;-79
2022/01/11 07:43:37;;;;;;;15.37;8.50;;;2.50;99.90;;;;;;5001680;28;20197;-79
2022/01/11 07:46:03;;;;;;;19.43;9.10;;;2.40;99.90;;;;;;4986155;28;20211;-79
2022/01/11 07:48:29;;;;;;;19.47;9.57;;;2.50;99.90;;;;;;4982836;28;20184;-80
2022/01/11 07:50:54;;;;;;;16.07;8.93;;;2.50;99.90;;;;;;4980633;28;20216;-79
2022/01/11 07:53:20;;;;;;;21.70;10.20;;;2.30;99.90;;;;;;4973728;28;20712;-78
2022/01/11 07:55:46;;;;;;;18.27;9.60;;;2.20;99.90;;;;;;4972597;28;20239;-78
2022/01/11 07:58:11;;;;;;;22.43;9.10;;;2.20;99.90;;;;;;4997891;28;20666;-78
2022/01/11 08:00:37;;;;;;;26.33;11.57;;;2.30;99.90;;;;;;4987137;28;20204;-76
2022/01/11 08:03:03;;;;;;;23.23;11.53;;;2.30;99.90;;;;;;4984671;28;20193;-76
2022/01/11 08:05:29;;;;;;;31.60;13.30;;;2.40;99.90;;;;;;4974727;28;20188;-75
2022/01/11 08:07:54;;;;;;;31.83;14.40;;;2.40;99.90;;;;;;4976622;28;20184;-76
2022/01/11 08:10:20;;;;;;;31.60;13.80;;;2.50;99.90;;;;;;4974799;28;20188;-75
2022/01/11 08:12:46;;;;;;;31.13;13.47;;;2.50;99.90;;;;;;4974532;28;20442;-76
2022/01/11 08:15:12;;;;;;;33.60;15.13;;;2.50;99.90;;;;;;4968813;28;20192;-76
2022/01/11 08:17:39;;;;;;;25.20;12.83;;;2.60;99.90;;;;;;4972233;28;20193;-76
2022/01/11 08:20:06;;;;;;;40.00;16.77;;;2.60;99.90;;;;;;4973307;28;20180;-78
2022/01/11 08:22:31;;;;;;;35.27;17.73;;;2.60;99.90;;;;;;4978170;28;20582;-78
2022/01/11 08:24:57;;;;;;;29.97;13.60;;;2.70;99.90;;;;;;4967125;28;20480;-78
2022/01/11 08:27:22;;;;;;;28.60;12.83;;;2.70;99.90;;;;;;4976074;28;20923;-78
2022/01/11 08:29:50;;;;;;;27.50;12.30;;;2.70;99.90;;;;;;4978970;28;20192;-78
2022/01/11 08:32:16;;;;;;;29.13;12.67;;;2.80;99.90;;;;;;4993952;28;20221;-78
2022/01/11 08:34:42;;;;;;;26.73;11.67;;;2.80;99.90;;;;;;4975694;28;20583;-79
2022/01/11 08:37:08;;;;;;;31.20;15.17;;;2.80;99.90;;;;;;4976508;28;20180;-77
2022/01/11 08:39:35;;;;;;;29.73;15.13;;;2.90;99.90;;;;;;4978594;28;20577;-78
2022/01/11 08:42:01;;;;;;;29.57;14.90;;;2.90;99.90;;;;;;4978652;28;20314;-79
2022/01/11 08:44:27;;;;;;;23.83;12.00;;;2.90;99.90;;;;;;4981045;28;20243;-79
2022/01/11 08:46:54;;;;;;;24.17;12.60;;;3.00;99.90;;;;;;4986388;28;21107;-78
2022/01/11 08:49:20;;;;;;;22.90;11.23;;;3.00;99.90;;;;;;4979984;28;21025;-78
2022/01/11 08:51:46;;;;;;;23.03;11.93;;;3.10;99.90;;;;;;4971868;28;20626;-78
2022/01/11 08:54:12;;;;;;;26.03;11.40;;;3.10;99.90;;;;;;4977455;28;20239;-78
2022/01/11 08:56:39;;;;;;;21.83;10.90;;;3.10;99.90;;;;;;4984915;28;20221;-78
2022/01/11 08:59:05;;;;;;;21.17;10.20;;;3.10;99.90;;;;;;4977409;28;20698;-78
2022/01/11 09:01:31;;;;;;;25.70;11.07;;;3.10;99.90;;;;;;4978911;28;20213;-78
2022/01/11 09:03:57;;;;;;;22.77;10.43;;;3.20;99.90;;;;;;4974695;28;20215;-78
2022/01/11 09:06:23;;;;;;;21.17;10.93;;;3.20;99.90;;;;;;4971860;28;20622;-79
2022/01/11 09:08:50;;;;;;;21.83;10.83;;;3.20;99.90;;;;;;4967121;28;20184;-79
2022/01/11 09:11:16;;;;;;;24.90;11.40;;;3.20;99.90;;;;;;4965171;28;20209;-77
2022/01/11 09:13:42;;;;;;;21.87;9.73;;;3.40;99.90;;;;;;4968769;28;20976;-77
2022/01/11 09:16:07;;;;;;;24.20;11.03;;;3.40;99.90;;;;;;4985322;28;20637;-77
2022/01/11 09:18:34;;;;;;;22.10;10.27;;;3.40;99.90;;;;;;4972858;28;20568;-77
2022/01/11 09:21:00;;;;;;;16.53;9.53;;;3.40;99.90;;;;;;4972960;28;20208;-84
2022/01/11 09:23:30;;;;;;;17.27;9.00;;;3.40;99.90;;;;;;4984747;28;20192;-78
2022/01/11 09:25:56;;;;;;;20.57;9.73;;;3.50;99.90;;;;;;4979830;28;20586;-79
2022/01/11 09:28:23;;;;;;;19.10;10.87;;;3.60;99.90;;;;;;4977298;28;20547;-78
2022/01/11 09:30:50;;;;;;;19.07;10.57;;;3.60;99.90;;;;;;4963399;28;20226;-79
2022/01/11 09:33:15;;;;;;;18.87;10.03;;;3.60;99.90;;;;;;4967642;28;20232;-78
2022/01/11 09:35:41;;;;;;;18.90;9.20;;;3.60;99.90;;;;;;4969133;28;20267;-78
2022/01/11 09:38:07;;;;;;;20.30;9.50;;;3.60;99.90;;;;;;4976429;28;20313;-78
2022/01/11 09:40:33;;;;;;;19.10;11.23;;;3.70;99.90;;;;;;4976714;28;20212;-79
2022/01/11 09:42:59;;;;;;;19.57;10.30;;;3.60;99.90;;;;;;4983019;28;20195;-79
2022/01/11 09:45:24;;;;;;;23.80;12.37;;;3.70;99.90;;;;;;4974370;28;20219;-79
2022/01/11 09:47:50;;;;;;;19.80;11.40;;;3.70;99.90;;;;;;4975127;28;20192;-79
2022/01/11 09:50:17;;;;;;;22.40;9.90;;;3.80;99.90;;;;;;4967287;28;20181;-79
2022/01/11 09:52:43;;;;;;;20.20;9.30;;;3.80;99.90;;;;;;4971792;28;20209;-79
2022/01/11 09:55:12;;;;;;;19.33;10.40;;;3.70;99.90;;;;;;4977048;28;20193;-78
2022/01/11 09:57:38;;;;;;;18.47;11.03;;;3.80;99.90;;;;;;4973565;28;20452;-79
2022/01/11 10:00:06;;;;;;;15.33;8.80;;;3.80;99.90;;;;;;4975895;28;20658;-79
2022/01/11 10:02:32;;;;;;;15.67;8.60;;;3.90;99.90;;;;;;4974197;28;20209;-79
2022/01/11 10:05:01;;;;;;;16.13;8.43;;;4.00;99.90;;;;;;4964684;28;20450;-79
2022/01/11 10:07:31;;;;;;;16.30;8.60;;;4.00;99.90;;;;;;4969670;28;20177;-79
2022/01/11 10:09:57;;;;;;;16.67;8.87;;;4.00;99.90;;;;;;4965416;28;20555;-79
2022/01/11 10:12:24;;;;;;;15.73;8.63;;;4.00;99.90;;;;;;4971813;28;20914;-80
2022/01/11 10:14:53;;;;;;;17.67;8.47;;;4.10;99.90;;;;;;4977375;28;20196;-78
2022/01/11 10:17:22;;;;;;;15.70;8.57;;;4.00;99.90;;;;;;4977319;28;20235;-78
2022/01/11 10:20:00;;;;;;;15.63;7.97;;;4.00;99.90;;;;;;4975276;28;20239;-79
2022/01/11 10:22:30;;;;;;;16.43;8.33;;;3.90;99.90;;;;;;4977919;28;20208;-77
2022/01/11 10:24:55;;;;;;;14.47;8.00;;;4.00;99.90;;;;;;4986826;28;20196;-78
2022/01/11 10:27:28;;;;;;;15.63;8.20;;;4.00;99.90;;;;;;4981894;28;20189;-78
2022/01/11 10:30:14;;;;;;;13.53;8.17;;;4.00;99.90;;;;;;4974545;28;20199;-79
2022/01/11 10:32:45;;;;;;;17.63;11.97;;;4.00;99.90;;;;;;4972872;28;20364;-78
2022/01/11 10:35:40;;;;;;;19.20;10.83;;;4.00;99.90;;;;;;4982506;28;20855;-78
2022/01/11 10:38:06;;;;;;;34.83;20.90;;;4.00;99.90;;;;;;4967465;28;20727;-77
2022/01/11 10:40:44;;;;;;;17.83;10.23;;;4.00;99.90;;;;;;4966286;28;20215;-78
2022/01/11 10:43:11;;;;;;;17.10;9.30;;;4.10;99.90;;;;;;4969050;28;20216;-78
2022/01/11 10:45:40;;;;;;;16.33;9.03;;;4.30;99.90;;;;;;4980087;28;20374;-78
2022/01/11 10:48:09;;;;;;;16.67;8.30;;;4.20;99.90;;;;;;4974625;28;20734;-77
2022/01/11 10:50:46;;;;;;;14.70;8.77;;;4.10;99.90;;;;;;4977933;28;20176;-78
2022/01/11 10:53:19;;;;;;;15.47;9.17;;;4.10;99.90;;;;;;4969678;28;20181;-78
2022/01/11 10:55:51;;;;;;;14.43;8.80;;;4.10;99.90;;;;;;4971856;28;20267;-77
2022/01/11 10:58:17;;;;;;;16.77;9.00;;;4.10;99.90;;;;;;4970962;28;20225;-77
2022/01/11 11:00:46;;;;;;;16.03;8.60;;;4.00;99.90;;;;;;4970654;28;20185;-78
2022/01/11 11:03:26;;;;;;;15.40;8.90;;;3.90;99.90;;;;;;4973144;28;20722;-78
2022/01/11 11:06:11;;;;;;;16.47;8.23;;;3.90;99.90;;;;;;4974714;28;20203;-78
2022/01/11 11:08:42;;;;;;;16.93;8.77;;;4.20;99.90;;;;;;4991306;28;20219;-78
2022/01/11 11:11:11;;;;;;;18.90;9.20;;;4.20;99.90;;;;;;4992048;28;20679;-78
2022/01/11 11:13:42;;;;;;;14.60;8.23;;;4.10;99.90;;;;;;4975363;28;20195;-78
2022/01/11 11:16:11;;;;;;;17.30;9.33;;;4.20;99.90;;;;;;4984155;28;20185;-77
2022/01/11 11:18:41;;;;;;;19.30;12.73;;;4.40;99.90;;;;;;4978567;28;20205;-78
2022/01/11 11:21:23;;;;;;;18.53;10.27;;;4.40;99.90;;;;;;4970081;28;20831;-78
2022/01/11 11:23:58;;;;;;;17.37;10.90;;;4.60;99.90;;;;;;4983953;28;20290;-78
2022/01/11 11:26:26;;;;;;;20.63;10.47;;;4.70;99.90;;;;;;4977178;28;20364;-78
2022/01/11 11:28:51;;;;;;;16.80;9.40;;;4.80;99.90;;;;;;4979374;28;20188;-77
2022/01/11 11:31:17;;;;;;;18.70;9.03;;;4.60;99.90;;;;;;4978635;28;20771;-78
2022/01/11 11:33:43;;;;;;;20.47;10.67;;;4.60;99.90;;;;;;4981436;28;20196;-77
2022/01/11 11:36:14;;;;;;;15.17;8.83;;;4.60;99.90;;;;;;4981298;28;20305;-78
2022/01/11 11:38:50;;;;;;;93.97;48.37;;;4.50;99.90;;;;;;4977826;28;20185;-78
2022/01/11 11:41:17;;;;;;;18.60;10.30;;;4.50;99.90;;;;;;4982428;28;20295;-78
2022/01/11 11:43:43;;;;;;;14.93;9.33;;;4.40;99.90;;;;;;4979180;28;20510;-79
2022/01/11 11:46:09;;;;;;;24.63;12.03;;;4.60;99.90;;;;;;4979572;28;20673;-78
2022/01/11 11:48:34;;;;;;;16.93;9.20;;;4.50;99.90;;;;;;4979408;28;20264;-78
2022/01/11 11:51:06;;;;;;;17.27;9.67;;;4.60;99.90;;;;;;4979792;28;20593;-79
2022/01/11 11:53:34;;;;;;;17.20;8.70;;;4.70;99.90;;;;;;4982080;28;21262;-77
2022/01/11 11:56:29;;;;;;;14.70;8.80;;;4.90;99.90;;;;;;4979285;28;20733;-78
2022/01/11 11:58:58;;;;;;;19.07;9.67;;;5.10;99.90;;;;;;4980507;28;20185;-79
2022/01/11 12:01:50;;;;;;;16.60;8.03;;;5.20;99.90;;;;;;4979784;28;20203;-78
2022/01/11 12:04:45;;;;;;;16.87;8.90;;;5.30;99.90;;;;;;4978520;28;20224;-79
2022/01/11 12:07:32;;;;;;;15.23;8.63;;;5.30;99.90;;;;;;4984604;28;20193;-80
2022/01/11 12:09:59;;;;;;;14.53;9.53;;;5.20;99.90;;;;;;4977364;28;20235;-77
2022/01/11 12:12:53;;;;;;;15.33;8.63;;;5.10;99.90;;;;;;4973974;28;20812;-78
2022/01/11 12:15:22;;;;;;;14.23;7.73;;;5.20;99.90;;;;;;4974535;28;20204;-78
2022/01/11 12:17:57;;;;;;;15.17;8.37;;;5.30;99.90;;;;;;4976232;28;20606;-78
2022/01/11 12:20:52;;;;;;;14.97;8.63;;;5.40;99.90;;;;;;4989840;28;20220;-78
2022/01/11 12:23:38;;;;;;;14.67;9.53;;;5.50;99.90;;;;;;4970767;28;20313;-79
2022/01/11 12:26:13;;;;;;;16.00;8.80;;;5.60;99.90;;;;;;4965084;28;20188;-78
2022/01/11 12:28:39;;;;;;;14.23;8.57;;;5.60;99.90;;;;;;4977149;28;20596;-78
2022/01/11 12:31:25;;;;;;;14.40;8.40;;;5.60;99.90;;;;;;4976026;28;20220;-79
2022/01/11 12:33:51;;;;;;;18.43;8.97;;;5.70;99.90;;;;;;4974824;28;20181;-79
2022/01/11 12:36:17;;;;;;;14.17;8.20;;;5.70;99.90;;;;;;4975937;28;20616;-79
2022/01/11 12:39:08;;;;;;;14.10;8.50;;;5.80;99.90;;;;;;4992710;28;20259;-78
2022/01/11 12:41:37;;;;;;;13.83;8.30;;;5.90;99.90;;;;;;4992018;28;20208;-78
2022/01/11 12:44:24;;;;;;;14.07;8.33;;;5.90;99.90;;;;;;4976479;28;20212;-78
2022/01/11 12:46:57;;;;;;;13.67;7.77;;;5.80;99.90;;;;;;4977469;28;20207;-78
2022/01/11 12:49:24;;;;;;;13.20;8.37;;;5.70;99.90;;;;;;4976578;28;20271;-79
2022/01/11 12:51:57;;;;;;;14.47;9.33;;;5.70;99.90;;;;;;4970403;28;20252;-78